Time;durP1;ratioP1;P1;durP2;ratioP2;P2;SDS_P1;SDS_P2;PMS_P1;PMS_P2;Temp;Humidity;BMP_temperature;BMP_pressure;BME280_temperature;BME280_humidity;BME280_pressure;Samples;Min_cycle;Max_cycle;Signal;HPM_P1;HPM_P2
2021/08/21 00:01:51;;;;;;;21.75;13.30;;;;;;;14.94;90.56;102044.81;4972104;28;20140;-68
2021/08/21 00:04:16;;;;;;;21.92;14.70;;;;;;;14.93;90.97;102038.63;4972341;28;20112;-67
2021/08/21 00:06:43;;;;;;;25.25;14.30;;;;;;;14.93;90.70;102045.72;4986991;28;20023;-68
2021/08/21 00:09:09;;;;;;;20.95;13.73;;;;;;;14.92;90.71;102038.69;4971933;28;20046;-68
2021/08/21 00:11:34;;;;;;;20.83;13.25;;;;;;;14.90;91.12;102040.53;4972256;28;20027;-67
2021/08/21 00:14:00;;;;;;;23.38;13.43;;;;;;;14.87;90.58;102037.97;4986995;28;20384;-68
2021/08/21 00:16:25;;;;;;;18.50;12.30;;;;;;;14.81;90.30;102032.00;4971813;28;20105;-69
2021/08/21 00:18:51;;;;;;;24.40;15.68;;;;;;;14.77;90.89;102029.50;4987140;28;20428;-68
2021/08/21 00:21:16;;;;;;;22.42;14.02;;;;;;;14.72;90.90;102040.19;4972021;28;20027;-68
2021/08/21 00:23:42;;;;;;;23.85;15.10;;;;;;;14.65;90.82;102031.59;4971596;28;20082;-67
2021/08/21 00:26:07;;;;;;;25.20;15.55;;;;;;;14.60;91.11;102036.13;4972079;28;20018;-68
2021/08/21 00:28:33;;;;;;;23.60;15.13;;;;;;;14.58;91.28;102037.94;4970956;28;20408;-68
2021/08/21 00:30:58;;;;;;;29.15;15.73;;;;;;;14.58;91.78;102040.59;4972037;28;20034;-68
2021/08/21 00:33:23;;;;;;;23.23;15.13;;;;;;;14.60;91.48;102032.63;4971672;28;20117;-68
2021/08/21 00:35:49;;;;;;;22.98;14.93;;;;;;;14.58;91.28;102032.66;4972267;28;20058;-69
2021/08/21 00:38:14;;;;;;;23.27;13.68;;;;;;;14.55;91.30;102030.13;4971908;28;20031;-67
2021/08/21 00:40:39;;;;;;;21.88;14.43;;;;;;;14.51;91.40;102028.47;4972233;28;20018;-71
2021/08/21 00:43:05;;;;;;;31.98;14.93;;;;;;;14.48;91.44;102029.44;4971523;28;20081;-67
2021/08/21 00:45:30;;;;;;;23.42;15.40;;;;;;;14.48;91.65;102028.59;4970580;28;20031;-69
2021/08/21 00:47:56;;;;;;;24.67;14.98;;;;;;;14.45;91.39;102026.91;4971313;28;20078;-68
2021/08/21 00:50:21;;;;;;;25.33;15.30;;;;;;;14.43;91.68;102023.44;4971556;28;20381;-68
2021/08/21 00:52:47;;;;;;;24.05;14.73;;;;;;;14.43;91.87;102019.94;4971101;28;20480;-69
2021/08/21 00:55:12;;;;;;;22.98;14.55;;;;;;;14.42;91.81;102018.22;4970172;28;20480;-68
2021/08/21 00:57:38;;;;;;;24.92;14.35;;;;;;;14.40;91.79;102020.03;4971005;28;20551;-69
2021/08/21 01:00:05;;;;;;;24.20;15.70;;;;;;;14.36;91.42;102027.16;4971451;28;20019;-70
2021/08/21 01:02:31;;;;;;;26.05;16.38;;;;;;;14.32;91.59;102026.38;4971386;28;20038;-68
2021/08/21 01:04:58;;;;;;;26.05;17.27;;;;;;;14.30;91.65;102022.06;4971232;28;20026;-70
2021/08/21 01:07:28;;;;;;;24.63;15.00;;;;;;;14.27;91.89;102024.81;4971022;28;20026;-67
2021/08/21 01:09:54;;;;;;;20.80;14.25;;;;;;;14.23;91.74;102023.16;4985829;28;20396;-68
2021/08/21 01:12:21;;;;;;;23.08;13.63;;;;;;;14.17;91.44;102019.78;4971212;28;20050;-67
2021/08/21 01:14:48;;;;;;;29.33;15.98;;;;;;;14.13;91.49;102017.31;4971001;28;20033;-68
2021/08/21 01:17:13;;;;;;;26.73;15.55;;;;;;;14.10;91.60;102020.03;4971167;28;20079;-69
2021/08/21 01:19:46;;;;;;;27.75;15.95;;;;;;;14.11;91.78;102019.13;4985972;28;20461;-68
2021/08/21 01:22:16;;;;;;;26.75;15.45;;;;;;;14.09;91.67;102019.19;4970943;28;20026;-69
2021/08/21 01:24:42;;;;;;;26.85;16.60;;;;;;;14.07;91.74;102022.75;4986088;28;20407;-68
2021/08/21 01:27:16;;;;;;;25.90;16.08;;;;;;;14.04;91.94;102024.56;4986071;28;20102;-69
2021/08/21 01:29:42;;;;;;;23.20;14.65;;;;;;;14.01;91.69;102019.38;4971022;28;20291;-68
2021/08/21 01:32:07;;;;;;;25.45;14.50;;;;;;;13.98;91.99;102019.47;4985987;28;20484;-67
2021/08/21 01:34:32;;;;;;;31.98;16.38;;;;;;;13.96;91.95;102013.38;4985796;28;20027;-68
2021/08/21 01:36:58;;;;;;;25.05;16.13;;;;;;;13.93;92.31;102010.81;4971215;28;20464;-67
2021/08/21 01:39:23;;;;;;;28.85;16.92;;;;;;;13.93;92.09;102013.47;4970601;28;20023;-68
2021/08/21 01:41:48;;;;;;;28.55;15.27;;;;;;;13.92;92.11;102014.38;4971440;28;20023;-67
2021/08/21 01:44:15;;;;;;;27.38;16.95;;;;;;;13.90;92.49;102018.81;4986037;28;20030;-67
2021/08/21 01:46:41;;;;;;;26.45;17.23;;;;;;;13.89;92.65;102009.16;4971053;28;20117;-70
2021/08/21 01:49:11;;;;;;;26.60;15.60;;;;;;;13.89;92.19;102019.72;4970855;28;20461;-68
2021/08/21 01:51:37;;;;;;;33.70;17.63;;;;;;;13.88;92.34;102018.00;4970829;28;20455;-68
2021/08/21 01:54:02;;;;;;;27.83;16.98;;;;;;;13.88;92.44;102023.28;4985710;28;20055;-68
2021/08/21 01:56:28;;;;;;;24.67;15.77;;;;;;;13.87;92.35;102016.28;4970739;28;20109;-68
2021/08/21 01:58:53;;;;;;;26.13;15.68;;;;;;;13.88;92.55;102028.56;4970789;28;20019;-69
2021/08/21 02:01:19;;;;;;;27.38;16.42;;;;;;;13.88;92.39;102020.66;4970518;28;20038;-68
2021/08/21 02:03:46;;;;;;;26.60;16.77;;;;;;;13.87;92.31;102021.56;4970699;28;20081;-70
2021/08/21 02:06:12;;;;;;;28.60;16.05;;;;;;;13.91;92.23;102017.06;4985237;28;20077;-68
2021/08/21 02:08:37;;;;;;;26.85;15.55;;;;;;;13.91;92.21;102012.63;4970661;28;20030;-68
2021/08/21 02:11:03;;;;;;;27.83;17.13;;;;;;;13.91;92.14;102011.78;4970384;28;20034;-70
2021/08/21 02:13:28;;;;;;;26.73;17.10;;;;;;;13.92;91.82;102013.47;4970624;28;20023;-68
2021/08/21 02:15:53;;;;;;;23.95;15.38;;;;;;;13.95;92.13;102018.69;4970649;28;20096;-71
2021/08/21 02:18:19;;;;;;;24.33;15.93;;;;;;;13.97;92.08;102016.88;4970527;28;20029;-68
2021/08/21 02:20:45;;;;;;;24.92;15.40;;;;;;;13.97;92.35;102015.09;4970352;28;20033;-68
2021/08/21 02:23:11;;;;;;;25.30;15.15;;;;;;;14.00;92.13;102017.66;4970515;28;20027;-67
2021/08/21 02:25:36;;;;;;;25.33;15.77;;;;;;;14.01;92.08;102019.38;4970395;28;20114;-69
2021/08/21 02:28:09;;;;;;;25.25;16.17;;;;;;;14.03;92.05;102022.84;4970991;28;20085;-68
2021/08/21 02:30:40;;;;;;;25.00;15.43;;;;;;;14.04;92.28;102011.38;4968787;28;20089;-67
2021/08/21 02:33:06;;;;;;;25.63;15.88;;;;;;;14.06;92.38;102007.84;4985339;28;20035;-68
2021/08/21 02:35:32;;;;;;;24.02;15.25;;;;;;;14.06;92.19;102010.47;4970261;28;20456;-69
2021/08/21 02:37:58;;;;;;;26.25;15.27;;;;;;;14.06;92.19;102015.75;4985181;28;20026;-67
2021/08/21 02:40:24;;;;;;;24.73;14.10;;;;;;;14.06;92.14;102013.97;4970426;28;20037;-69
2021/08/21 02:42:50;;;;;;;26.45;16.58;;;;;;;14.08;92.29;102019.19;4970047;28;20018;-67
2021/08/21 02:45:15;;;;;;;26.67;16.05;;;;;;;14.08;92.05;102006.88;4985342;28;20042;-68
2021/08/21 02:47:41;;;;;;;21.40;14.82;;;;;;;14.07;92.43;102006.94;4984984;28;20039;-68
2021/08/21 02:50:07;;;;;;;25.05;15.07;;;;;;;14.04;92.20;102010.50;4970961;28;20034;-70
2021/08/21 02:52:32;;;;;;;25.00;15.75;;;;;;;14.02;92.02;102004.41;4972718;28;20042;-68
2021/08/21 02:54:57;;;;;;;27.63;16.27;;;;;;;13.99;92.58;102008.03;4989026;28;20025;-68
2021/08/21 02:57:22;;;;;;;28.90;18.45;;;;;;;13.98;92.19;102008.91;4973365;28;20023;-70
2021/08/21 02:59:48;;;;;;;37.58;20.90;;;;;;;14.02;93.20;102007.06;4973700;28;20121;-69
2021/08/21 03:02:13;;;;;;;33.78;20.17;;;;;;;14.09;93.87;102000.72;4973069;28;20030;-70
2021/08/21 03:04:38;;;;;;;30.63;17.75;;;;;;;14.10;93.54;102002.41;4988452;28;20030;-68
2021/08/21 03:07:04;;;;;;;30.02;18.27;;;;;;;14.08;93.41;102001.59;4973450;28;20038;-67
2021/08/21 03:09:29;;;;;;;30.70;18.48;;;;;;;14.06;93.08;101997.28;4973261;28;20022;-68
2021/08/21 03:11:54;;;;;;;31.98;18.67;;;;;;;14.04;92.95;101998.19;4972968;28;20019;-69
2021/08/21 03:14:20;;;;;;;29.48;17.02;;;;;;;14.05;93.32;102001.69;4973569;28;20027;-67
2021/08/21 03:16:45;;;;;;;29.25;17.50;;;;;;;14.06;93.24;101998.13;4973208;28;20030;-67
2021/08/21 03:19:10;;;;;;;30.67;17.92;;;;;;;14.06;93.30;101994.66;4973009;28;20053;-68
2021/08/21 03:21:36;;;;;;;33.58;18.42;;;;;;;14.05;93.32;101991.13;4988102;28;20464;-68
2021/08/21 03:24:01;;;;;;;29.20;18.25;;;;;;;14.05;93.14;101999.03;4972744;28;20031;-67
2021/08/21 03:26:26;;;;;;;34.03;19.92;;;;;;;14.07;93.33;102001.66;4971703;28;20056;-67
2021/08/21 03:28:51;;;;;;;36.03;20.15;;;;;;;14.14;94.17;101992.63;4972839;28;20026;-68
2021/08/21 03:31:17;;;;;;;36.65;20.40;;;;;;;14.18;94.47;101989.88;4972750;28;20035;-67
2021/08/21 03:33:43;;;;;;;35.78;19.50;;;;;;;14.22;93.72;101993.28;4972757;28;20031;-69
2021/08/21 03:36:08;;;;;;;34.97;19.70;;;;;;;14.24;93.86;101994.09;4973354;28;20022;-69
2021/08/21 03:38:33;;;;;;;35.08;19.80;;;;;;;14.27;93.50;101983.44;4972706;28;20023;-69
2021/08/21 03:40:59;;;;;;;37.28;20.60;;;;;;;14.29;93.57;101986.91;4972785;28;20025;-67
2021/08/21 03:43:24;;;;;;;34.47;21.63;;;;;;;14.30;93.60;101986.00;4972929;28;20033;-70
2021/08/21 03:45:50;;;;;;;36.92;22.38;;;;;;;14.34;93.67;101992.06;4972909;28;20058;-68
2021/08/21 03:48:15;;;;;;;37.85;23.02;;;;;;;14.36;93.65;101991.09;4972334;28;20109;-68
2021/08/21 03:50:40;;;;;;;41.53;23.00;;;;;;;14.40;93.60;101993.63;4973041;28;20271;-69
2021/08/21 03:53:06;;;;;;;40.03;22.55;;;;;;;14.41;93.67;101990.09;4972557;28;20046;-67
2021/08/21 03:55:31;;;;;;;41.85;23.75;;;;;;;14.43;93.64;101993.56;4972835;28;20062;-68
2021/08/21 03:57:58;;;;;;;40.08;23.15;;;;;;;14.47;93.70;101995.19;4987382;28;20023;-68
2021/08/21 04:00:24;;;;;;;56.67;30.20;;;;;;;14.50;93.80;101982.75;4972363;28;20111;-69
2021/08/21 04:02:49;;;;;;;53.22;29.42;;;;;;;14.55;94.25;101985.25;4971551;28;20058;-67
2021/08/21 04:05:14;;;;;;;50.00;28.92;;;;;;;14.58;94.22;101985.16;4971918;28;20073;-69
2021/08/21 04:07:40;;;;;;;39.95;23.58;;;;;;;14.56;93.55;101983.47;4987402;28;20069;-69
2021/08/21 04:10:06;;;;;;;41.70;22.60;;;;;;;14.51;93.62;101975.69;4972623;28;20022;-68
2021/08/21 04:12:31;;;;;;;34.88;20.70;;;;;;;14.49;93.07;101983.66;4972859;28;20093;-69
2021/08/21 04:14:56;;;;;;;35.13;21.58;;;;;;;14.49;93.02;101983.66;4970879;28;20054;-68
2021/08/21 04:17:23;;;;;;;38.88;22.02;;;;;;;14.50;93.04;101979.25;4987653;28;20061;-68
2021/08/21 04:19:48;;;;;;;44.90;24.80;;;;;;;14.50;93.40;101992.47;4972932;28;20023;-69
2021/08/21 04:22:14;;;;;;;42.13;24.40;;;;;;;14.49;93.40;101988.09;4972627;28;20031;-69
2021/08/21 04:24:39;;;;;;;41.20;23.95;;;;;;;14.49;93.41;101988.09;4972339;28;20078;-68
2021/08/21 04:27:04;;;;;;;52.85;29.40;;;;;;;14.53;94.02;101987.06;4972246;28;20031;-69
2021/08/21 04:29:30;;;;;;;53.60;29.92;;;;;;;14.59;94.41;101986.88;4971830;28;20022;-69
2021/08/21 04:31:55;;;;;;;65.43;34.00;;;;;;;14.69;94.79;101983.06;4971818;28;20081;-69
2021/08/21 04:34:20;;;;;;;61.42;32.75;;;;;;;14.77;94.95;101981.94;4986511;28;20177;-67
2021/08/21 04:36:46;;;;;;;56.35;30.60;;;;;;;14.81;94.73;101983.56;4972220;28;20027;-68
2021/08/21 04:39:11;;;;;;;58.67;30.67;;;;;;;14.83;94.67;101984.38;4971683;28;20031;-67
2021/08/21 04:41:36;;;;;;;52.83;30.35;;;;;;;14.83;94.69;101982.63;4971127;28;20070;-67
2021/08/21 04:44:02;;;;;;;54.83;31.55;;;;;;;14.84;94.55;101980.84;4971346;28;20027;-69
2021/08/21 04:46:27;;;;;;;53.83;31.52;;;;;;;14.82;94.56;101983.53;4986337;28;20039;-68
2021/08/21 04:48:52;;;;;;;51.13;29.50;;;;;;;14.81;94.25;101984.44;4971635;28;20023;-69
2021/08/21 04:51:18;;;;;;;55.58;30.27;;;;;;;14.81;94.01;101988.84;4971748;28;20030;-68
2021/08/21 04:53:43;;;;;;;52.75;29.60;;;;;;;14.83;94.24;101992.31;4970893;28;20022;-69
2021/08/21 04:56:08;;;;;;;57.63;32.00;;;;;;;14.85;94.49;101991.34;4972043;28;20471;-70
2021/08/21 04:58:34;;;;;;;57.88;32.70;;;;;;;14.91;94.59;101986.78;4971446;28;20029;-70
2021/08/21 05:00:59;;;;;;;63.50;33.95;;;;;;;14.93;95.17;101996.38;4986138;28;20372;-68
2021/08/21 05:03:24;;;;;;;58.78;31.70;;;;;;;14.96;95.05;102000.72;4971151;28;20027;-68
2021/08/21 05:05:50;;;;;;;57.58;32.40;;;;;;;15.00;94.79;102002.34;4971175;28;20381;-69
2021/08/21 05:08:16;;;;;;;58.58;32.28;;;;;;;15.01;94.57;102001.44;4971199;28;20035;-70
2021/08/21 05:10:42;;;;;;;55.33;29.48;;;;;;;15.02;94.81;102000.53;4970986;28;20615;-69
2021/08/21 05:13:07;;;;;;;45.60;27.60;;;;;;;15.05;94.30;101996.91;4970936;28;20134;-69
2021/08/21 05:15:33;;;;;;;48.42;28.63;;;;;;;15.05;94.00;101997.75;4969216;28;20238;-69
2021/08/21 05:18:00;;;;;;;44.17;25.92;;;;;;;15.08;94.14;101997.69;4969740;28;20158;-68
2021/08/21 05:20:28;;;;;;;42.22;25.13;;;;;;;15.08;93.75;102002.06;4971017;28;20018;-68
2021/08/21 05:23:08;;;;;;;41.33;26.13;;;;;;;15.09;93.86;102006.44;4985386;28;20038;-69
2021/08/21 05:25:39;;;;;;;49.80;28.88;;;;;;;15.08;93.68;101997.69;4970920;28;20077;-67
2021/08/21 05:28:05;;;;;;;48.70;28.05;;;;;;;15.09;93.74;101991.44;4985826;28;20033;-69
2021/08/21 05:30:34;;;;;;;44.92;25.63;;;;;;;15.10;93.55;102003.75;4985820;28;20031;-69
2021/08/21 05:33:00;;;;;;;55.38;28.77;;;;;;;15.09;93.54;102009.94;4970492;28;20031;-69
2021/08/21 05:35:25;;;;;;;51.35;30.48;;;;;;;15.10;93.41;102006.41;4970901;28;20033;-69
2021/08/21 05:37:50;;;;;;;44.88;27.52;;;;;;;15.13;93.83;102010.72;4970600;28;20031;-69
2021/08/21 05:40:16;;;;;;;55.35;30.33;;;;;;;15.16;94.05;102013.25;4985549;28;20441;-68
2021/08/21 05:42:41;;;;;;;51.72;29.02;;;;;;;15.19;93.98;102010.50;4970254;28;20130;-68
2021/08/21 05:45:07;;;;;;;50.90;28.02;;;;;;;15.29;94.18;102005.78;4970910;28;20030;-68
2021/08/21 05:47:32;;;;;;;41.65;24.92;;;;;;;15.39;93.74;102006.31;4970446;28;20399;-70
2021/08/21 05:50:01;;;;;;;43.75;26.55;;;;;;;15.48;93.36;102014.81;4970946;28;20027;-68
2021/08/21 05:52:27;;;;;;;41.88;25.83;;;;;;;15.55;93.07;102006.66;4970639;28;20054;-69
2021/08/21 05:54:52;;;;;;;40.55;25.48;;;;;;;15.60;92.42;102015.28;4970746;28;20080;-68
2021/08/21 05:57:17;;;;;;;40.70;24.90;;;;;;;15.64;92.25;102007.19;4985320;28;20391;-69
2021/08/21 05:59:43;;;;;;;42.83;24.88;;;;;;;15.69;91.88;102009.69;4970587;28;20068;-67
2021/08/21 06:02:08;;;;;;;40.05;23.90;;;;;;;15.75;91.47;102008.59;4970510;28;20034;-66
2021/08/21 06:04:34;;;;;;;42.92;25.88;;;;;;;15.79;91.32;102010.22;4970967;28;20026;-69
2021/08/21 06:06:59;;;;;;;37.38;25.38;;;;;;;15.87;90.93;102013.47;4970696;28;20031;-68
2021/08/21 06:09:25;;;;;;;41.53;23.90;;;;;;;15.95;90.28;102011.41;4985693;28;20030;-68
2021/08/21 06:11:50;;;;;;;35.63;23.77;;;;;;;16.07;90.27;102009.22;4970887;28;20033;-68
2021/08/21 06:14:16;;;;;;;36.97;23.42;;;;;;;16.11;89.83;102008.19;4969204;28;20080;-68
2021/08/21 06:16:41;;;;;;;40.05;23.98;;;;;;;16.17;89.36;102007.94;4985842;28;20031;-68
2021/08/21 06:19:06;;;;;;;36.38;24.02;;;;;;;16.21;89.29;102001.63;4985181;28;20019;-68
2021/08/21 06:21:32;;;;;;;35.80;23.15;;;;;;;16.29;89.04;102003.97;4985246;28;20023;-67
2021/08/21 06:23:57;;;;;;;34.28;23.23;;;;;;;16.38;89.04;102010.69;4970323;28;20373;-69
2021/08/21 06:26:22;;;;;;;36.60;23.70;;;;;;;16.46;88.81;102013.94;4969451;28;20029;-69
2021/08/21 06:28:47;;;;;;;33.85;23.70;;;;;;;16.53;88.53;102009.25;4973689;28;20437;-68
2021/08/21 06:31:13;;;;;;;35.55;23.58;;;;;;;16.69;87.99;102012.16;4974136;28;20093;-69
2021/08/21 06:33:38;;;;;;;33.95;21.70;;;;;;;16.92;86.63;102019.22;4972436;28;20125;-69
2021/08/21 06:36:04;;;;;;;33.70;21.10;;;;;;;17.06;86.13;102016.81;4989027;28;20029;-68
2021/08/21 06:38:29;;;;;;;33.47;22.17;;;;;;;17.27;85.14;102015.06;4973806;28;20034;-69
2021/08/21 06:40:54;;;;;;;32.92;21.88;;;;;;;17.37;85.02;102014.69;4974162;28;20121;-68
2021/08/21 06:43:20;;;;;;;33.90;21.88;;;;;;;17.21;85.25;102010.03;4973977;28;20034;-68
2021/08/21 06:45:45;;;;;;;30.40;20.60;;;;;;;17.12;85.81;102015.72;4974823;28;20417;-68
2021/08/21 06:48:10;;;;;;;32.60;21.27;;;;;;;17.03;85.71;102013.44;4974284;28;20237;-69
2021/08/21 06:50:36;;;;;;;32.90;21.30;;;;;;;17.00;86.59;102013.59;4974355;28;20089;-67
2021/08/21 06:53:02;;;;;;;30.77;19.85;;;;;;;17.04;85.92;102015.16;4973868;28;20069;-68
2021/08/21 06:55:28;;;;;;;31.05;20.90;;;;;;;17.02;85.73;102014.41;4973633;28;20065;-68
2021/08/21 06:57:53;;;;;;;30.85;19.83;;;;;;;17.01;86.12;102008.22;4973758;28;20027;-68
2021/08/21 07:00:19;;;;;;;30.60;20.25;;;;;;;16.99;85.81;102009.19;4973878;28;20058;-67
2021/08/21 07:02:44;;;;;;;29.35;19.88;;;;;;;16.93;86.02;102012.94;4974431;28;20033;-68
2021/08/21 07:05:10;;;;;;;32.15;20.70;;;;;;;16.93;86.45;102015.59;4974090;28;20038;-68
2021/08/21 07:07:35;;;;;;;30.42;20.45;;;;;;;17.03;86.39;102016.97;4974103;28;20033;-68
2021/08/21 07:10:02;;;;;;;27.23;19.10;;;;;;;17.22;86.35;102019.69;4973872;28;20027;-68
2021/08/21 07:12:27;;;;;;;28.08;19.42;;;;;;;17.36;84.70;102013.81;4988671;28;20049;-68
2021/08/21 07:14:53;;;;;;;27.75;19.73;;;;;;;17.55;83.57;102016.53;4972087;28;20477;-69
2021/08/21 07:17:19;;;;;;;26.83;19.20;;;;;;;17.72;83.97;102006.97;4973241;28;20034;-68
2021/08/21 07:19:44;;;;;;;27.30;17.98;;;;;;;17.84;82.65;101998.47;4973021;28;20109;-69
2021/08/21 07:22:09;;;;;;;27.02;18.40;;;;;;;17.95;82.11;102002.44;4973704;28;20042;-69
2021/08/21 07:24:35;;;;;;;27.17;19.48;;;;;;;18.00;82.60;102001.31;4972929;28;20042;-68
2021/08/21 07:27:00;;;;;;;24.80;17.90;;;;;;;18.06;82.24;101997.53;4972250;28;20079;-68
2021/08/21 07:29:25;;;;;;;23.45;17.05;;;;;;;18.10;81.69;102004.41;4967853;28;20490;-70
2021/08/21 07:31:50;;;;;;;25.30;17.70;;;;;;;18.12;81.63;102001.69;4952992;28;20564;-69
2021/08/21 07:34:16;;;;;;;21.55;16.13;;;;;;;18.29;80.99;101999.09;4968116;28;20551;-69
2021/08/21 07:36:41;;;;;;;24.02;17.25;;;;;;;18.27;80.32;101997.44;4952907;28;20090;-69
2021/08/21 07:39:06;;;;;;;24.45;17.88;;;;;;;18.30;81.56;101997.31;4952791;28;20027;-68
2021/08/21 07:41:35;;;;;;;22.42;16.08;;;;;;;18.46;81.34;101995.63;4953086;28;20019;-68
2021/08/21 07:44:01;;;;;;;21.23;15.85;;;;;;;18.77;81.17;101988.00;4953391;28;20354;-68
2021/08/21 07:46:27;;;;;;;25.52;15.07;;;;;;;19.00;78.69;101994.81;4953135;28;20031;-69
2021/08/21 07:48:52;;;;;;;20.80;15.82;;;;;;;19.15;77.59;101996.72;4953946;28;20036;-68
2021/08/21 07:51:17;;;;;;;20.35;15.27;;;;;;;19.23;77.40;101998.13;4968573;28;20034;-69
2021/08/21 07:53:43;;;;;;;21.05;14.88;;;;;;;19.22;76.48;101991.94;4953720;28;20071;-69
2021/08/21 07:56:08;;;;;;;21.52;15.35;;;;;;;19.33;76.23;101986.94;4953433;28;20035;-69
2021/08/21 07:58:33;;;;;;;24.45;15.30;;;;;;;19.54;75.40;101985.91;4953811;28;20062;-69
2021/08/21 08:00:59;;;;;;;22.17;15.45;;;;;;;20.07;75.16;101990.19;4953760;28;20098;-69
2021/08/21 08:03:25;;;;;;;20.40;14.25;;;;;;;20.23;72.88;101994.63;4953521;28;20416;-69
2021/08/21 08:05:50;;;;;;;21.20;14.90;;;;;;;20.93;69.55;101991.59;4953500;28;20030;-70
2021/08/21 08:08:16;;;;;;;19.90;14.38;;;;;;;21.39;67.71;101988.00;4952901;28;20023;-69
2021/08/21 08:10:42;;;;;;;17.83;13.70;;;;;;;21.84;67.44;101990.63;4967660;28;20031;-68
2021/08/21 08:13:07;;;;;;;18.70;14.05;;;;;;;22.69;63.06;101979.88;4952457;28;20515;-69
2021/08/21 08:15:32;;;;;;;20.08;13.35;;;;;;;23.64;59.14;101993.97;4952683;29;20023;-68
2021/08/21 08:17:57;;;;;;;16.92;12.70;;;;;;;24.18;57.63;101990.13;4952470;28;20027;-67
2021/08/21 08:20:23;;;;;;;16.83;12.82;;;;;;;24.27;56.65;101990.44;4967585;28;20089;-70
2021/08/21 08:22:48;;;;;;;19.35;12.85;;;;;;;23.44;57.87;101987.31;4952233;28;20106;-69
2021/08/21 08:25:14;;;;;;;18.10;12.90;;;;;;;22.84;60.26;101991.38;4967247;28;20027;-69
2021/08/21 08:27:39;;;;;;;20.67;13.07;;;;;;;22.27;62.15;101987.91;4952062;28;20038;-68
2021/08/21 08:30:05;;;;;;;18.45;12.55;;;;;;;22.40;62.10;101993.34;4952649;28;20137;-70
2021/08/21 08:32:30;;;;;;;18.98;13.02;;;;;;;22.20;63.59;101994.59;4952265;28;20030;-71
2021/08/21 08:34:56;;;;;;;18.50;12.45;;;;;;;22.20;62.54;101997.25;4952783;28;20030;-68
2021/08/21 08:37:22;;;;;;;23.15;12.20;;;;;;;22.13;64.21;101990.59;4966673;28;20137;-70
2021/08/21 08:39:47;;;;;;;21.63;12.07;;;;;;;22.10;63.93;101986.31;4952353;29;20468;-70
2021/08/21 08:42:14;;;;;;;20.00;12.50;;;;;;;22.13;63.26;101990.59;4952657;28;20035;-69
2021/08/21 08:44:48;;;;;;;16.40;12.32;;;;;;;21.80;63.23;101994.47;4953148;28;20027;-70
2021/08/21 08:47:19;;;;;;;17.98;12.15;;;;;;;21.32;65.47;101992.84;4936176;29;20456;-69
2021/08/21 08:49:46;;;;;;;14.85;10.35;;;;;;;21.43;65.79;101997.53;4952253;28;20377;-68
2021/08/21 08:52:11;;;;;;;20.58;12.05;;;;;;;21.43;66.40;102001.06;4952692;28;20555;-68
2021/08/21 08:54:37;;;;;;;16.77;12.52;;;;;;;21.29;65.54;102004.56;4952526;28;20113;-69
2021/08/21 08:57:03;;;;;;;17.10;12.18;;;;;;;21.12;67.06;101997.56;4967436;28;20066;-70
2021/08/21 08:59:29;;;;;;;17.35;12.23;;;;;;;21.17;67.33;102005.28;4952171;28;20480;-69
2021/08/21 09:01:55;;;;;;;15.15;12.02;;;;;;;21.22;68.34;102005.91;4952136;28;20476;-71
2021/08/21 09:04:23;;;;;;;21.83;12.93;;;;;;;21.36;67.54;102005.06;4966978;28;20034;-68
2021/08/21 09:06:49;;;;;;;19.10;11.65;;;;;;;21.56;66.44;102003.88;4951924;29;20477;-70
2021/08/21 09:09:16;;;;;;;15.45;11.13;;;;;;;21.78;65.63;102005.25;4953132;28;20046;-69
2021/08/21 09:11:44;;;;;;;16.02;11.88;;;;;;;21.91;65.42;102000.81;4968111;28;20071;-69
2021/08/21 09:14:28;;;;;;;18.15;11.05;;;;;;;22.03;64.60;102004.53;4953157;28;20031;-68
2021/08/21 09:17:18;;;;;;;16.70;11.13;;;;;;;22.28;64.38;101999.44;4953157;28;20073;-69
2021/08/21 09:19:44;;;;;;;15.32;10.80;;;;;;;22.52;62.79;101994.34;4952777;28;20023;-69
2021/08/21 09:22:13;;;;;;;13.60;9.82;;;;;;;22.68;63.43;101997.72;4951287;29;20027;-69
2021/08/21 09:24:41;;;;;;;16.58;10.85;;;;;;;23.05;61.70;101987.25;4952331;29;20426;-67
2021/08/21 09:27:15;;;;;;;16.10;10.50;;;;;;;23.49;60.08;101987.88;4952390;28;20429;-68
2021/08/21 09:29:40;;;;;;;16.77;10.90;;;;;;;24.17;57.30;101982.22;4952098;28;20212;-70
2021/08/21 09:32:07;;;;;;;12.82;9.63;;;;;;;24.58;56.43;101980.13;4952034;28;20114;-67
2021/08/21 09:34:33;;;;;;;15.60;8.85;;;;;;;25.43;54.36;101984.50;4966495;28;20118;-69
2021/08/21 09:36:58;;;;;;;12.32;8.93;;;;;;;26.14;52.17;101973.50;4950890;29;20027;-70
2021/08/21 09:39:38;;;;;;;13.07;9.10;;;;;;;26.82;50.85;101967.06;4950448;28;20066;-69
2021/08/21 09:42:05;;;;;;;14.10;8.50;;;;;;;26.03;50.45;101960.88;4952212;28;20019;-70
2021/08/21 09:44:31;;;;;;;11.15;7.72;;;;;;;26.19;50.65;101965.91;4952099;28;20031;-70
2021/08/21 09:47:20;;;;;;;12.70;6.88;;;;;;;26.99;48.30;101963.78;4950856;29;20118;-68
2021/08/21 09:49:46;;;;;;;11.95;6.40;;;;;;;27.63;47.88;101961.03;4950549;29;20094;-69
2021/08/21 09:52:15;;;;;;;11.65;6.88;;;;;;;27.52;47.18;101975.44;4950472;28;20493;-69
2021/08/21 09:54:43;;;;;;;11.88;6.63;;;;;;;27.98;45.49;101963.28;4966600;28;20035;-71
2021/08/21 09:57:11;;;;;;;9.13;5.53;;;;;;;28.07;43.25;101961.66;4951663;28;20023;-70
2021/08/21 09:59:39;;;;;;;11.18;5.43;;;;;;;27.08;46.61;101969.34;4966361;28;20082;-68
2021/08/21 10:02:11;;;;;;;9.80;5.75;;;;;;;27.40;47.48;101977.41;4952955;28;20031;-68
2021/08/21 10:04:37;;;;;;;9.90;5.65;;;;;;;27.64;46.07;101963.59;4955067;29;20029;-69
2021/08/21 10:07:07;;;;;;;9.60;5.70;;;;;;;27.26;45.79;101966.94;4954755;29;20046;-70
2021/08/21 10:09:35;;;;;;;9.60;5.75;;;;;;;27.19;45.53;101964.75;4953582;29;20247;-69
2021/08/21 10:12:02;;;;;;;13.98;5.15;;;;;;;27.16;48.02;101956.09;4953595;29;20038;-71
2021/08/21 10:14:29;;;;;;;9.88;3.97;;;;;;;27.46;44.52;101957.13;4954947;28;20031;-69
2021/08/21 10:16:54;;;;;;;7.57;4.10;;;;;;;27.41;45.03;101954.00;4954632;29;20086;-69
2021/08/21 10:19:22;;;;;;;7.65;4.57;;;;;;;26.61;45.22;101961.59;4969757;28;20424;-69
2021/08/21 10:21:53;;;;;;;8.13;4.95;;;;;;;27.06;45.38;101958.72;4953798;29;20085;-69
2021/08/21 10:24:37;;;;;;;10.50;4.53;;;;;;;27.38;45.36;101957.78;4954205;29;20118;-70
2021/08/21 10:27:28;;;;;;;10.27;4.80;;;;;;;27.75;43.55;101954.56;4970243;28;20063;-68
2021/08/21 10:30:17;;;;;;;10.10;4.40;;;;;;;27.33;44.62;101949.25;4955071;29;20079;-69
2021/08/21 10:32:44;;;;;;;10.73;3.97;;;;;;;26.90;44.99;101951.97;4955190;28;20114;-68
2021/08/21 10:35:14;;;;;;;10.00;5.25;;;;;;;26.53;46.87;101963.13;4955071;28;20476;-69
2021/08/21 10:37:42;;;;;;;7.60;3.80;;;;;;;26.58;46.79;101960.03;4954491;29;20126;-69
2021/08/21 10:40:26;;;;;;;10.55;4.45;;;;;;;27.33;44.69;101957.34;4954552;29;20322;-69
2021/08/21 10:43:11;;;;;;;9.38;3.92;;;;;;;27.77;41.73;101963.34;4954467;29;20035;-69
2021/08/21 10:45:40;;;;;;;7.03;3.63;;;;;;;28.12;42.28;101959.38;4969165;28;20397;-70
2021/08/21 10:48:06;;;;;;;9.52;4.18;;;;;;;28.48;41.85;101967.78;4953872;29;20400;-70
2021/08/21 10:50:36;;;;;;;8.10;3.65;;;;;;;28.70;41.09;101952.31;4953094;29;20102;-70
2021/08/21 10:53:03;;;;;;;9.68;4.90;;;;;;;28.63;41.65;101943.94;4968185;28;20027;-68
2021/08/21 10:55:36;;;;;;;10.15;5.43;;;;;;;28.19;41.01;101951.56;4954217;29;20022;-69
2021/08/21 10:58:10;;;;;;;10.38;5.10;;;;;;;28.24;41.97;101943.06;4953655;29;20035;-69
2021/08/21 11:00:38;;;;;;;10.45;4.03;;;;;;;27.71;43.38;101950.44;4953823;29;20082;-70
2021/08/21 11:03:05;;;;;;;8.18;4.30;;;;;;;27.83;42.78;101943.94;4953505;28;20041;-70
2021/08/21 11:05:53;;;;;;;10.82;5.13;;;;;;;26.66;44.49;101940.56;4954029;28;20031;-70
2021/08/21 11:08:26;;;;;;;13.27;5.88;;;;;;;26.57;45.74;101937.66;4953248;29;20031;-70
2021/08/21 11:11:07;;;;;;;11.07;5.65;;;;;;;26.81;44.24;101933.91;4953993;29;20082;-69